Weather at UNFICYP OP08 Heliport

Public forecast

Using degrees Celsius for public forecast. Weather courtesy of forecast.io.

Closest aviation weather report (METAR) to UNFICYP OP08 Heliport

Closest report is Paphos International Airport, 29.5 nm (54.7 km) SSW.

2024/05/29 21:30 (retrieved 23 minutes ago)

LCPH 292130Z 01006KT 010V080 9999 FEW019 19/16 Q1011 NOSIG

Closest aviation forecast (TAF) to UNFICYP OP08 Heliport

Closest forecast is Paphos International Airport, 29.5 nm (54.7 km) SSW.

2024/05/29 18:30 (retrieved 3 hours ago)

TAF LCPH 291730Z 2918/3018 30010KT 9999 FEW020 BECMG 2918/2921 01006KT PROB30 TEMPO 2920/3005 BKN009 BECMG 3007/3010 27014KT